Time;durP1;ratioP1;P1;durP2;ratioP2;P2;SDS_P1;SDS_P2;PMS_P1;PMS_P2;Temp;Humidity;BMP_temperature;BMP_pressure;BME280_temperature;BME280_humidity;BME280_pressure;Samples;Min_cycle;Max_cycle;Signal;HPM_P1;HPM_P2
2022/06/06 00:01:19;;;;;;;13.27;11.05;;;16.30;99.90;;;;;;5071782;28;20068;-71
2022/06/06 00:03:46;;;;;;;15.23;10.98;;;16.30;99.90;;;;;;5070721;28;20044;-71
2022/06/06 00:06:14;;;;;;;12.35;10.63;;;16.30;99.90;;;;;;5070530;28;20036;-70
2022/06/06 00:08:40;;;;;;;13.00;11.55;;;16.30;99.90;;;;;;5070460;28;20051;-70
2022/06/06 00:11:09;;;;;;;16.20;11.25;;;16.30;99.90;;;;;;5071550;28;20563;-71
2022/06/06 00:13:37;;;;;;;11.65;10.45;;;16.40;99.90;;;;;;5071828;28;20032;-71
2022/06/06 00:16:03;;;;;;;15.43;11.68;;;16.30;99.90;;;;;;5070389;28;20119;-70
2022/06/06 00:18:29;;;;;;;16.10;11.90;;;16.30;99.90;;;;;;5070411;28;20120;-70
2022/06/06 00:20:55;;;;;;;12.70;11.27;;;16.30;99.90;;;;;;5071288;28;20040;-71
2022/06/06 00:23:21;;;;;;;15.77;12.13;;;16.30;99.90;;;;;;5071792;28;20032;-70
2022/06/06 00:25:47;;;;;;;14.73;11.77;;;16.30;99.90;;;;;;5070380;28;20116;-70
2022/06/06 00:28:13;;;;;;;16.60;13.05;;;16.30;99.90;;;;;;5070296;28;20041;-70
2022/06/06 00:30:38;;;;;;;14.95;11.70;;;16.20;99.90;;;;;;5069914;28;20047;-70
2022/06/06 00:35:48;;;;;;;14.73;12.50;;;16.30;99.90;;;;;;5071633;28;20232;-70
2022/06/06 00:38:13;;;;;;;14.93;11.18;;;16.30;99.90;;;;;;5070285;28;20052;-70
2022/06/06 00:40:39;;;;;;;13.95;11.85;;;16.20;99.90;;;;;;5070254;28;20036;-70
2022/06/06 00:43:05;;;;;;;14.52;11.93;;;16.20;99.90;;;;;;5070203;28;20518;-70
2022/06/06 00:45:36;;;;;;;15.02;12.10;;;16.20;99.90;;;;;;5071754;28;20036;-70
2022/06/06 00:48:47;;;;;;;14.73;11.88;;;16.20;99.90;;;;;;5071595;28;20047;-70
2022/06/06 00:51:15;;;;;;;16.77;11.85;;;16.10;99.90;;;;;;5070336;28;20044;-70
2022/06/06 00:53:45;;;;;;;17.75;14.07;;;16.00;99.90;;;;;;5070067;28;20044;-70
2022/06/06 00:56:14;;;;;;;15.60;12.77;;;16.00;99.90;;;;;;5070387;28;20036;-70
2022/06/06 00:58:41;;;;;;;19.75;14.00;;;16.00;99.90;;;;;;5071303;28;20391;-70
2022/06/06 01:01:08;;;;;;;18.10;14.23;;;15.90;99.90;;;;;;5069757;28;20093;-70
2022/06/06 01:03:37;;;;;;;15.55;12.93;;;15.90;99.90;;;;;;5071371;28;20036;-70
2022/06/06 01:06:04;;;;;;;15.30;12.45;;;15.90;99.90;;;;;;5071749;28;20051;-70
2022/06/06 01:08:31;;;;;;;16.77;12.43;;;15.90;99.90;;;;;;5075295;28;20037;-70
2022/06/06 01:10:56;;;;;;;13.13;10.75;;;15.90;99.90;;;;;;5074846;28;20076;-70
2022/06/06 01:13:23;;;;;;;14.20;11.35;;;15.90;99.90;;;;;;5073976;28;20079;-70
2022/06/06 01:16:22;;;;;;;15.68;12.32;;;15.80;99.90;;;;;;5075028;28;20051;-70
2022/06/06 01:19:21;;;;;;;13.40;10.95;;;15.80;99.90;;;;;;5073847;28;20604;-70
2022/06/06 01:22:30;;;;;;;16.33;13.10;;;15.80;99.90;;;;;;5074536;28;20110;-70
2022/06/06 01:25:11;;;;;;;15.40;12.23;;;15.70;99.90;;;;;;5073595;28;20127;-70
2022/06/06 01:27:51;;;;;;;16.00;12.02;;;15.70;99.90;;;;;;5074607;28;20447;-70
2022/06/06 01:30:41;;;;;;;16.23;11.75;;;15.70;99.90;;;;;;5074396;28;20452;-70
2022/06/06 01:33:12;;;;;;;16.63;11.40;;;15.70;99.90;;;;;;5090143;28;20191;-70
2022/06/06 01:35:41;;;;;;;15.15;11.63;;;15.70;99.90;;;;;;5074786;28;20033;-70
2022/06/06 01:38:08;;;;;;;18.75;10.75;;;15.60;99.90;;;;;;5073270;28;20071;-70
2022/06/06 01:40:45;;;;;;;14.10;11.27;;;15.70;99.90;;;;;;5074218;28;20057;-70
2022/06/06 01:43:15;;;;;;;18.13;11.43;;;15.60;99.90;;;;;;5074428;28;20506;-70
2022/06/06 01:45:53;;;;;;;15.98;10.95;;;15.60;99.90;;;;;;5074334;28;20040;-70
2022/06/06 01:48:29;;;;;;;14.95;11.00;;;15.60;99.90;;;;;;5074456;28;20123;-71
2022/06/06 01:50:55;;;;;;;14.73;10.95;;;15.60;99.90;;;;;;5072645;28;20473;-70
2022/06/06 01:53:23;;;;;;;15.05;10.80;;;15.60;99.90;;;;;;5074271;28;20093;-70
2022/06/06 01:55:50;;;;;;;14.82;11.05;;;15.50;99.90;;;;;;5074184;28;20044;-70
2022/06/06 01:58:31;;;;;;;13.90;10.70;;;15.50;99.90;;;;;;5072834;28;20071;-70
2022/06/06 02:00:57;;;;;;;14.75;10.30;;;15.50;99.90;;;;;;5073899;28;20056;-70
2022/06/06 02:03:22;;;;;;;16.73;11.35;;;15.50;99.90;;;;;;5072797;28;20052;-70
2022/06/06 02:05:48;;;;;;;13.52;10.63;;;15.40;99.90;;;;;;5073884;28;20040;-70
2022/06/06 02:08:17;;;;;;;17.77;10.40;;;15.40;99.90;;;;;;5073951;28;20047;-70
2022/06/06 02:10:43;;;;;;;12.02;10.27;;;15.40;99.90;;;;;;5072455;28;20111;-70
2022/06/06 02:13:10;;;;;;;14.38;9.23;;;15.40;99.90;;;;;;5072596;28;20051;-70
2022/06/06 02:15:36;;;;;;;11.55;9.05;;;15.40;99.90;;;;;;5073990;28;20039;-70
2022/06/06 02:18:01;;;;;;;13.07;8.38;;;15.30;99.90;;;;;;5073436;28;20417;-70
2022/06/06 02:20:30;;;;;;;14.82;8.70;;;15.30;99.90;;;;;;5071982;28;20124;-71
2022/06/06 02:22:56;;;;;;;13.93;8.88;;;15.30;99.90;;;;;;5073623;28;20491;-70
2022/06/06 02:25:22;;;;;;;13.60;8.52;;;15.20;99.90;;;;;;5073503;28;20041;-70
2022/06/06 02:27:48;;;;;;;12.68;9.13;;;15.20;99.90;;;;;;5073750;28;20449;-70
2022/06/06 02:30:20;;;;;;;9.40;7.53;;;15.10;99.90;;;;;;5071930;28;20080;-70
2022/06/06 02:32:46;;;;;;;10.57;6.75;;;15.10;99.90;;;;;;5073571;28;20040;-70
2022/06/06 02:35:16;;;;;;;8.88;7.47;;;15.10;99.90;;;;;;5073496;28;20040;-70
2022/06/06 02:37:42;;;;;;;10.20;7.68;;;15.00;99.90;;;;;;5073306;28;20047;-70
2022/06/06 02:40:10;;;;;;;7.68;6.38;;;15.00;99.90;;;;;;5073143;28;20119;-71
2022/06/06 02:42:36;;;;;;;10.77;6.50;;;15.00;99.90;;;;;;5073174;28;20051;-70
2022/06/06 02:45:02;;;;;;;10.00;6.85;;;14.90;99.90;;;;;;5072001;28;20087;-70
2022/06/06 02:47:29;;;;;;;7.65;6.22;;;14.90;99.90;;;;;;5073100;28;20499;-70
2022/06/06 02:49:55;;;;;;;9.02;6.70;;;14.90;99.90;;;;;;5071616;28;20089;-71
2022/06/06 02:52:21;;;;;;;8.50;6.28;;;14.90;99.90;;;;;;5071915;28;20032;-70
2022/06/06 02:54:46;;;;;;;10.23;5.88;;;14.90;99.90;;;;;;5073233;28;20119;-71
2022/06/06 02:57:13;;;;;;;9.18;5.85;;;14.80;99.90;;;;;;5073158;28;20402;-70
2022/06/06 02:59:41;;;;;;;9.13;6.72;;;14.80;99.90;;;;;;5073024;28;20040;-71
2022/06/06 03:02:08;;;;;;;8.30;5.28;;;14.80;99.90;;;;;;5071327;28;20045;-70
2022/06/06 03:04:34;;;;;;;7.10;5.65;;;14.80;99.90;;;;;;5071837;28;20394;-70
2022/06/06 03:07:27;;;;;;;9.27;5.95;;;14.80;99.90;;;;;;5072620;28;20059;-70
2022/06/06 03:10:05;;;;;;;7.43;5.70;;;14.80;99.90;;;;;;5071325;28;20052;-71
2022/06/06 03:12:45;;;;;;;8.85;6.28;;;14.70;99.90;;;;;;5072854;28;20387;-70
2022/06/06 03:15:38;;;;;;;7.78;6.18;;;14.70;99.90;;;;;;5071573;28;20461;-70
2022/06/06 03:21:47;;;;;;;9.30;6.07;;;14.70;99.90;;;;;;5072290;28;20545;-70
2022/06/06 03:24:43;;;;;;;10.00;6.60;;;14.70;99.90;;;;;;5055646;28;20060;-70
2022/06/06 03:27:35;;;;;;;8.75;6.57;;;14.70;99.90;;;;;;5071480;28;20044;-71
2022/06/06 03:30:17;;;;;;;11.73;7.60;;;14.60;99.90;;;;;;5071389;28;20604;-71
2022/06/06 03:33:02;;;;;;;9.93;8.30;;;14.70;99.90;;;;;;5072482;28;20036;-70
2022/06/06 03:35:48;;;;;;;12.57;8.40;;;14.60;99.90;;;;;;5072394;28;20040;-71
2022/06/06 03:38:32;;;;;;;9.40;7.38;;;14.60;99.90;;;;;;5070920;28;20482;-70
2022/06/06 03:41:19;;;;;;;11.93;8.07;;;14.60;99.90;;;;;;5087412;28;20604;-70
2022/06/06 03:43:55;;;;;;;9.63;7.03;;;14.50;99.90;;;;;;5070928;28;20041;-70
2022/06/06 03:46:51;;;;;;;8.27;6.72;;;14.50;99.90;;;;;;5072085;28;20041;-70
2022/06/06 03:49:39;;;;;;;8.35;6.32;;;14.60;99.90;;;;;;5070746;28;20048;-70
2022/06/06 03:52:27;;;;;;;7.30;6.10;;;14.50;99.90;;;;;;5071701;28;20380;-70
2022/06/06 03:55:26;;;;;;;8.50;5.57;;;14.50;99.90;;;;;;5104549;28;20036;-70
2022/06/06 03:57:54;;;;;;;7.57;5.30;;;14.50;99.90;;;;;;5072211;28;20048;-70
2022/06/06 04:00:22;;;;;;;7.32;5.03;;;14.60;99.90;;;;;;5070335;28;20051;-70
2022/06/06 04:02:49;;;;;;;8.85;5.28;;;14.60;99.90;;;;;;5070585;28;20040;-70
2022/06/06 04:05:18;;;;;;;7.18;5.20;;;14.60;99.90;;;;;;5070774;28;20501;-70
2022/06/06 04:07:44;;;;;;;6.25;4.82;;;14.60;99.90;;;;;;5070682;28;20071;-70
2022/06/06 04:10:11;;;;;;;6.68;4.57;;;14.60;99.90;;;;;;5070195;28;20044;-70
2022/06/06 04:12:45;;;;;;;6.35;4.63;;;14.60;99.90;;;;;;5070534;28;20089;-70
2022/06/06 04:15:18;;;;;;;5.38;3.95;;;14.60;99.90;;;;;;5070688;28;20052;-70
2022/06/06 04:18:17;;;;;;;5.03;3.47;;;14.60;99.90;;;;;;5070371;28;20041;-70
2022/06/06 04:20:55;;;;;;;4.80;3.33;;;14.60;99.90;;;;;;5070402;28;20048;-70
2022/06/06 04:23:30;;;;;;;4.35;3.42;;;14.60;99.90;;;;;;5070511;28;20047;-70
2022/06/06 04:26:15;;;;;;;4.53;3.20;;;14.60;99.90;;;;;;5071692;28;20414;-70
2022/06/06 04:28:56;;;;;;;4.18;3.42;;;14.60;99.90;;;;;;5070290;28;20099;-70
2022/06/06 04:31:38;;;;;;;3.80;3.10;;;14.60;99.90;;;;;;5071261;28;20062;-70
2022/06/06 04:34:16;;;;;;;4.53;3.80;;;14.50;99.90;;;;;;5070367;28;20123;-70
2022/06/06 04:36:53;;;;;;;5.55;3.20;;;14.60;99.90;;;;;;5070300;28;20063;-70
2022/06/06 04:39:32;;;;;;;4.72;3.53;;;14.60;99.90;;;;;;5071739;28;20045;-70
2022/06/06 04:42:22;;;;;;;4.35;3.53;;;14.60;99.90;;;;;;5107686;28;20123;-70
2022/06/06 04:45:21;;;;;;;6.18;4.47;;;14.60;99.90;;;;;;5074306;28;20048;-70
2022/06/06 04:47:48;;;;;;;6.28;4.93;;;14.60;99.90;;;;;;5074746;28;20053;-71
2022/06/06 04:50:19;;;;;;;7.38;5.13;;;14.60;99.90;;;;;;5075213;28;20068;-71
2022/06/06 04:52:53;;;;;;;7.13;3.83;;;14.60;99.90;;;;;;5074480;28;20424;-70
2022/06/06 04:55:20;;;;;;;7.30;4.38;;;14.60;99.90;;;;;;5074154;28;20124;-70
2022/06/06 04:57:49;;;;;;;7.18;4.63;;;14.50;99.90;;;;;;5074300;28;20047;-70
2022/06/06 05:00:16;;;;;;;6.47;4.32;;;14.60;99.90;;;;;;5074955;28;20045;-70
2022/06/06 05:02:42;;;;;;;8.13;5.03;;;14.50;99.90;;;;;;5073993;28;20050;-70
2022/06/06 05:05:09;;;;;;;7.00;4.55;;;14.50;99.90;;;;;;5075214;28;20113;-70
2022/06/06 05:08:12;;;;;;;9.98;5.50;;;14.50;99.90;;;;;;5074859;28;20052;-70
2022/06/06 05:10:54;;;;;;;14.63;6.23;;;14.40;99.90;;;;;;5074854;28;20115;-71
2022/06/06 05:13:50;;;;;;;9.85;6.18;;;14.50;99.90;;;;;;5074018;28;20286;-70
2022/06/06 05:16:16;;;;;;;8.00;5.05;;;14.40;99.90;;;;;;5074906;28;20403;-70
2022/06/06 05:19:01;;;;;;;10.00;5.97;;;14.40;99.90;;;;;;5075043;28;20097;-70
2022/06/06 05:21:55;;;;;;;10.05;6.75;;;14.40;99.90;;;;;;5074940;28;20044;-70
2022/06/06 05:24:52;;;;;;;13.18;7.40;;;14.30;99.90;;;;;;5074781;28;20094;-70
2022/06/06 05:27:40;;;;;;;18.35;8.77;;;14.30;99.90;;;;;;5073684;28;20040;-70
2022/06/06 05:30:46;;;;;;;13.65;8.57;;;14.30;99.90;;;;;;5074284;28;20094;-70
2022/06/06 05:33:19;;;;;;;18.35;10.13;;;14.30;99.90;;;;;;5072856;28;20076;-70
2022/06/06 05:35:56;;;;;;;18.57;9.30;;;14.30;99.90;;;;;;5073353;28;20044;-70
2022/06/06 05:38:42;;;;;;;14.82;8.60;;;14.20;99.90;;;;;;5073260;28;20067;-70
2022/06/06 05:41:19;;;;;;;20.85;10.05;;;14.30;99.90;;;;;;5074071;28;20040;-70
2022/06/06 05:44:11;;;;;;;17.80;9.38;;;14.20;99.90;;;;;;5073384;28;20045;-71
2022/06/06 05:47:00;;;;;;;17.50;8.43;;;14.30;99.90;;;;;;5073144;28;20406;-70
2022/06/06 05:49:44;;;;;;;13.10;7.55;;;14.20;99.90;;;;;;5072972;28;20375;-70
2022/06/06 05:52:31;;;;;;;14.45;8.77;;;14.20;99.90;;;;;;5072104;28;20036;-70
2022/06/06 05:55:19;;;;;;;13.40;9.10;;;14.20;99.90;;;;;;5074290;28;20043;-70
2022/06/06 05:58:11;;;;;;;14.10;8.55;;;14.10;99.90;;;;;;5074136;28;20099;-70
2022/06/06 06:01:03;;;;;;;14.68;9.15;;;14.10;99.90;;;;;;5073855;28;20040;-70
2022/06/06 06:03:31;;;;;;;17.25;10.02;;;14.00;99.90;;;;;;5074103;28;20051;-70
2022/06/06 06:06:08;;;;;;;18.20;10.05;;;14.10;99.90;;;;;;5072739;28;20051;-70
2022/06/06 06:09:07;;;;;;;17.88;10.82;;;14.00;99.90;;;;;;5072606;28;20528;-70
2022/06/06 06:11:44;;;;;;;19.33;11.00;;;14.00;99.90;;;;;;5073640;28;20102;-70
2022/06/06 06:14:17;;;;;;;20.42;11.55;;;14.10;99.90;;;;;;5106552;28;20059;-70
2022/06/06 06:16:45;;;;;;;;;;;14.00;99.90;;;;;;5074444;28;20074;-70
2022/06/06 06:19:18;;;;;;;23.10;12.73;;;14.00;99.90;;;;;;5073937;28;19916;-70
2022/06/06 06:21:53;;;;;;;24.50;13.55;;;14.00;99.90;;;;;;5073224;28;20510;-70
2022/06/06 06:24:28;;;;;;;19.17;12.15;;;14.00;99.90;;;;;;5073772;28;20055;-70
2022/06/06 06:26:56;;;;;;;21.80;13.02;;;14.10;99.90;;;;;;5073523;28;20044;-70
2022/06/06 06:29:22;;;;;;;22.20;14.30;;;14.10;99.90;;;;;;5073646;28;20056;-70
2022/06/06 06:32:13;;;;;;;24.23;12.73;;;14.10;99.90;;;;;;5073283;28;20498;-70
2022/06/06 06:35:13;;;;;;;19.77;11.68;;;14.10;99.90;;;;;;5073210;28;20045;-70
2022/06/06 06:38:03;;;;;;;21.00;12.27;;;14.20;99.90;;;;;;5073676;28;20036;-70
2022/06/06 06:40:52;;;;;;;23.02;14.40;;;14.20;99.90;;;;;;5072060;28;20052;-70
2022/06/06 06:43:39;;;;;;;22.60;13.88;;;14.20;99.90;;;;;;5073264;28;20562;-70
2022/06/06 06:46:18;;;;;;;19.00;12.38;;;14.30;99.90;;;;;;5073366;28;20036;-70
2022/06/06 06:48:45;;;;;;;19.48;11.45;;;14.30;99.90;;;;;;5073380;28;20044;-70
2022/06/06 06:51:29;;;;;;;18.20;11.32;;;14.40;99.90;;;;;;5072814;28;20044;-70
2022/06/06 06:53:55;;;;;;;16.55;10.23;;;14.40;99.90;;;;;;5073086;28;20079;-70
2022/06/06 06:56:44;;;;;;;13.50;9.40;;;14.40;99.90;;;;;;5072980;28;20072;-70
2022/06/06 06:59:30;;;;;;;14.13;9.25;;;14.40;99.90;;;;;;5072019;28;20123;-70
2022/06/06 07:09:12;;;;;;;11.32;8.23;;;14.30;99.90;;;;;;5105386;28;20138;-70
2022/06/06 07:12:04;;;;;;;12.10;7.97;;;14.30;99.90;;;;;;5071155;28;20040;-70
2022/06/06 07:15:10;;;;;;;14.18;8.55;;;14.40;99.90;;;;;;5072315;28;20123;-70
2022/06/06 07:17:52;;;;;;;12.95;8.38;;;14.50;99.90;;;;;;5071397;28;20090;-70
2022/06/06 07:20:19;;;;;;;12.77;7.63;;;14.50;99.90;;;;;;5071002;28;20068;-69
2022/06/06 07:23:00;;;;;;;14.60;9.02;;;14.60;99.90;;;;;;5071550;28;20371;-70
2022/06/06 07:25:27;;;;;;;14.13;8.50;;;14.60;99.90;;;;;;5072450;28;20595;-69
2022/06/06 07:27:53;;;;;;;13.23;8.75;;;14.60;99.90;;;;;;5072155;28;20086;-69
2022/06/06 07:30:21;;;;;;;13.55;9.25;;;14.70;99.90;;;;;;5072238;28;20078;-69
2022/06/06 07:33:08;;;;;;;11.63;9.00;;;14.70;99.90;;;;;;5072420;28;20047;-69
2022/06/06 07:35:44;;;;;;;17.40;8.48;;;14.90;99.90;;;;;;5072245;28;20043;-68
2022/06/06 07:38:35;;;;;;;12.93;9.13;;;15.20;99.90;;;;;;5072499;28;20047;-69
2022/06/06 07:41:16;;;;;;;11.10;8.73;;;15.60;99.90;;;;;;5071968;28;20041;-69
2022/06/06 07:43:44;;;;;;;11.82;8.20;;;15.80;99.90;;;;;;5072288;28;20125;-69
2022/06/06 07:46:17;;;;;;;11.57;8.13;;;15.90;99.90;;;;;;5072144;28;20506;-69
2022/06/06 07:48:46;;;;;;;10.00;7.25;;;15.80;99.90;;;;;;5070814;28;20053;-69
2022/06/06 07:51:26;;;;;;;12.50;7.53;;;15.60;99.90;;;;;;5070436;28;20131;-68
2022/06/06 07:54:15;;;;;;;11.68;7.30;;;15.60;99.90;;;;;;5072136;28;20052;-69
2022/06/06 07:57:11;;;;;;;9.88;6.80;;;15.50;99.90;;;;;;5069792;28;20044;-69
2022/06/06 07:59:58;;;;;;;10.85;7.07;;;15.60;99.90;;;;;;5070942;28;20044;-69
2022/06/06 08:02:36;;;;;;;12.88;6.10;;;15.60;99.90;;;;;;5071884;28;20047;-69
2022/06/06 08:05:20;;;;;;;8.18;5.50;;;15.70;99.90;;;;;;5070636;28;20052;-71
2022/06/06 08:07:54;;;;;;;6.30;5.22;;;15.70;99.90;;;;;;5071249;28;20041;-71
2022/06/06 08:10:39;;;;;;;6.15;4.38;;;15.80;99.90;;;;;;5069102;28;20041;-70
2022/06/06 08:13:05;;;;;;;9.98;5.25;;;15.80;99.90;;;;;;5070036;28;20086;-71
2022/06/06 08:15:40;;;;;;;11.05;5.70;;;15.90;99.90;;;;;;5070956;28;20732;-71
2022/06/06 08:18:30;;;;;;;6.55;4.05;;;16.20;99.90;;;;;;5102558;28;20052;-70
2022/06/06 08:21:07;;;;;;;7.65;5.00;;;16.40;99.90;;;;;;5071511;28;20048;-70
2022/06/06 08:23:37;;;;;;;10.25;4.55;;;16.80;99.90;;;;;;5071710;28;20124;-69
2022/06/06 08:26:03;;;;;;;6.32;4.45;;;17.10;99.90;;;;;;5070128;28;20491;-70
2022/06/06 08:28:31;;;;;;;7.15;4.30;;;17.30;99.90;;;;;;5071036;28;20042;-70
2022/06/06 08:30:57;;;;;;;11.85;5.70;;;17.30;99.90;;;;;;5069768;28;20397;-70
2022/06/06 08:33:23;;;;;;;7.82;4.65;;;17.00;99.90;;;;;;5070533;28;20037;-70
2022/06/06 08:36:14;;;;;;;9.38;4.60;;;16.90;99.90;;;;;;5069192;28;20098;-70
2022/06/06 08:39:01;;;;;;;5.68;4.05;;;16.70;99.90;;;;;;5051426;28;20056;-71
2022/06/06 08:42:01;;;;;;;9.25;5.03;;;16.80;99.90;;;;;;5051071;28;20499;-70
2022/06/06 08:44:46;;;;;;;10.50;5.13;;;16.80;99.90;;;;;;5053454;28;20047;-70
2022/06/06 08:47:30;;;;;;;8.18;4.88;;;16.60;99.90;;;;;;5069200;28;20040;-71
2022/06/06 08:53:48;;;;;;;10.25;5.63;;;16.40;99.90;;;;;;5071700;28;20047;-70
2022/06/06 08:56:31;;;;;;;7.82;4.82;;;16.50;99.90;;;;;;5071505;28;20090;-70
2022/06/06 08:59:45;;;;;;;5.68;4.50;;;16.70;99.90;;;;;;5071484;28;20047;-71
2022/06/06 09:02:36;;;;;;;10.70;4.10;;;16.70;99.90;;;;;;5059322;28;20053;-71
2022/06/06 09:05:17;;;;;;;9.77;4.20;;;16.90;99.90;;;;;;5068359;28;20044;-71
2022/06/06 09:08:17;;;;;;;7.78;3.13;;;16.90;99.90;;;;;;5069727;28;20055;-70
2022/06/06 09:10:57;;;;;;;5.82;3.45;;;17.00;99.90;;;;;;5071021;28;20036;-70
2022/06/06 09:13:59;;;;;;;6.65;3.17;;;17.40;99.90;;;;;;5071264;28;20040;-69
2022/06/06 09:16:47;;;;;;;7.75;3.65;;;17.50;99.90;;;;;;5070045;28;20043;-67
2022/06/06 09:19:12;;;;;;;4.90;3.10;;;17.60;99.90;;;;;;5071236;28;20127;-71
2022/06/06 09:21:54;;;;;;;6.07;2.72;;;17.70;99.90;;;;;;5069638;28;20129;-72
2022/06/06 09:24:41;;;;;;;4.70;3.00;;;17.70;99.90;;;;;;5071187;28;20072;-71
2022/06/06 09:27:06;;;;;;;4.93;2.58;;;17.60;99.90;;;;;;5072114;28;20044;-70
2022/06/06 09:30:15;;;;;;;3.78;2.15;;;18.00;99.90;;;;;;5073505;28;20524;-71
2022/06/06 09:33:18;;;;;;;6.93;2.22;;;18.30;99.90;;;;;;5073735;28;20028;-71
2022/06/06 09:36:08;;;;;;;7.70;2.08;;;18.50;99.90;;;;;;5073989;28;20127;-71
2022/06/06 09:38:55;;;;;;;6.85;2.08;;;18.60;99.90;;;;;;5073327;28;20051;-71
2022/06/06 09:41:36;;;;;;;4.80;2.20;;;18.70;99.90;;;;;;5073206;28;20050;-71
2022/06/06 09:44:26;;;;;;;2.42;1.65;;;18.70;99.90;;;;;;5074679;28;20075;-71
2022/06/06 09:47:11;;;;;;;6.28;2.10;;;18.60;99.90;;;;;;5074489;28;20044;-71
2022/06/06 09:50:08;;;;;;;4.40;1.90;;;18.50;99.90;;;;;;5074583;28;20040;-71
2022/06/06 09:53:08;;;;;;;6.22;1.80;;;18.60;99.90;;;;;;5073730;28;20541;-71
2022/06/06 10:01:57;;;;;;;4.80;1.60;;;17.80;99.90;;;;;;5073805;28;20202;-72
2022/06/06 10:04:46;;;;;;;5.82;2.15;;;18.20;99.90;;;;;;5074314;28;20044;-71
2022/06/06 10:07:29;;;;;;;5.50;2.13;;;18.60;99.90;;;;;;5073995;28;20598;-72
2022/06/06 10:10:04;;;;;;;;;;;18.30;99.90;;;;;;5074149;28;20114;-71
2022/06/06 10:12:45;;;;;;;2.70;1.80;;;17.80;99.90;;;;;;5074232;28;19917;-70
2022/06/06 10:15:10;;;;;;;8.57;2.10;;;17.70;99.90;;;;;;5072892;28;20491;-70
2022/06/06 10:18:07;;;;;;;4.28;1.70;;;17.60;99.90;;;;;;5074145;28;20036;-71
2022/06/06 10:20:45;;;;;;;4.10;1.52;;;17.30;99.90;;;;;;5073723;28;20056;-71
2022/06/06 10:23:42;;;;;;;2.70;1.65;;;17.50;99.90;;;;;;5072505;28;20048;-71
2022/06/06 10:26:27;;;;;;;3.63;1.85;;;17.80;99.90;;;;;;5073765;28;20410;-71
2022/06/06 10:29:28;;;;;;;6.93;2.25;;;18.10;99.90;;;;;;5073617;28;20137;-71
2022/06/06 10:32:17;;;;;;;6.95;2.00;;;18.30;99.90;;;;;;5073366;28;20115;-71
2022/06/06 10:34:55;;;;;;;4.22;1.75;;;18.50;99.90;;;;;;5106452;28;20084;-72
2022/06/06 10:37:28;;;;;;;21.02;2.08;;;18.80;99.90;;;;;;5073782;28;20041;-72
2022/06/06 10:40:30;;;;;;;3.45;1.40;;;19.00;99.90;;;;;;5073337;28;20040;-72
2022/06/06 10:43:22;;;;;;;4.70;1.52;;;19.20;99.90;;;;;;5072381;28;20044;-71
2022/06/06 10:45:55;;;;;;;2.42;1.75;;;18.90;99.90;;;;;;5073591;28;20124;-71
2022/06/06 10:48:40;;;;;;;6.95;1.77;;;18.40;99.90;;;;;;5073225;28;20088;-71
2022/06/06 10:54:15;;;;;;;2.95;1.15;;;17.80;99.90;;;;;;5105848;28;20045;-72
2022/06/06 10:56:44;;;;;;;3.60;1.40;;;17.50;99.90;;;;;;5073303;28;20072;-71
2022/06/06 10:59:54;;;;;;;2.15;1.63;;;17.30;99.90;;;;;;5071782;28;20094;-71
2022/06/06 11:02:41;;;;;;;7.18;2.20;;;17.10;99.90;;;;;;5073112;28;20048;-71
2022/06/06 11:05:43;;;;;;;4.28;1.60;;;17.20;99.90;;;;;;5072935;28;20064;-71
2022/06/06 11:08:35;;;;;;;4.90;1.63;;;17.40;99.90;;;;;;5072718;28;20051;-71
2022/06/06 11:11:03;;;;;;;3.75;1.88;;;17.60;99.90;;;;;;5072613;28;20115;-71
2022/06/06 11:14:07;;;;;;;3.80;1.58;;;17.90;99.90;;;;;;5072800;28;20032;-71
2022/06/06 11:17:05;;;;;;;;;;;18.10;99.90;;;;;;5073033;28;20119;-71
2022/06/06 11:19:51;;;;;;;8.27;1.83;;;18.20;99.90;;;;;;5049321;28;20019;-71
2022/06/06 11:22:26;;;;;;;4.97;2.15;;;18.20;99.90;;;;;;5072351;28;20040;-71
2022/06/06 11:25:01;;;;;;;7.07;1.98;;;18.10;99.90;;;;;;5072426;28;20221;-71
2022/06/06 11:27:35;;;;;;;3.65;2.30;;;18.40;99.90;;;;;;5072705;28;20116;-71
2022/06/06 11:30:24;;;;;;;5.57;1.48;;;18.70;99.90;;;;;;5071104;28;20076;-72
2022/06/06 11:33:05;;;;;;;6.07;1.70;;;18.90;99.90;;;;;;5071189;28;20054;-71
2022/06/06 11:35:40;;;;;;;3.47;1.35;;;18.80;99.90;;;;;;5072607;28;20047;-71
2022/06/06 11:38:27;;;;;;;4.45;1.88;;;19.20;99.90;;;;;;5072538;28;20052;-71
2022/06/06 11:41:11;;;;;;;4.55;1.70;;;19.20;99.90;;;;;;5071982;28;20072;-72
2022/06/06 11:43:49;;;;;;;6.10;1.92;;;19.10;99.90;;;;;;5072216;28;20048;-71
2022/06/06 11:46:35;;;;;;;3.58;1.85;;;19.00;99.90;;;;;;5088095;28;20064;-71
2022/06/06 11:49:22;;;;;;;3.17;1.85;;;18.80;99.90;;;;;;5072045;28;20044;-71
2022/06/06 11:52:21;;;;;;;4.68;1.52;;;18.50;99.90;;;;;;5071433;28;20055;-71
2022/06/06 11:55:26;;;;;;;6.82;2.35;;;18.20;99.90;;;;;;5072145;28;20041;-72
2022/06/06 11:57:58;;;;;;;3.53;1.90;;;17.40;99.90;;;;;;5072136;28;20452;-72
2022/06/06 12:00:57;;;;;;;8.27;3.00;;;17.00;99.90;;;;;;5071549;28;20044;-72
2022/06/06 12:03:31;;;;;;;3.50;2.50;;;16.80;99.90;;;;;;5070793;28;20052;-71
2022/06/06 12:06:15;;;;;;;4.40;2.28;;;16.90;99.90;;;;;;5071762;28;20494;-72
2022/06/06 12:08:52;;;;;;;;;;;17.00;99.90;;;;;;5072174;28;20577;-71
2022/06/06 12:11:49;;;;;;;6.63;2.33;;;17.10;99.90;;;;;;5071632;28;20002;-71
2022/06/06 12:14:39;;;;;;;4.50;2.80;;;17.20;99.90;;;;;;5071938;28;20040;-71
2022/06/06 12:17:17;;;;;;;3.58;2.03;;;17.30;99.90;;;;;;5071792;28;20569;-71
2022/06/06 12:19:42;;;;;;;5.43;2.97;;;17.20;99.90;;;;;;5071825;28;20103;-74
2022/06/06 12:22:20;;;;;;;2.92;2.20;;;17.50;99.90;;;;;;5071404;28;20524;-74
2022/06/06 12:24:57;;;;;;;4.72;2.33;;;17.60;99.90;;;;;;5069871;28;20048;-73
2022/06/06 12:27:46;;;;;;;3.10;2.10;;;17.50;99.90;;;;;;5070740;28;20430;-73
2022/06/06 12:30:33;;;;;;;3.10;1.98;;;17.40;99.90;;;;;;5068498;28;20097;-73
2022/06/06 12:33:14;;;;;;;4.85;2.63;;;17.20;99.90;;;;;;5069520;28;20406;-73
2022/06/06 12:35:47;;;;;;;6.72;2.13;;;17.30;99.90;;;;;;5068373;28;20072;-73
2022/06/06 12:38:40;;;;;;;3.38;1.50;;;17.40;99.90;;;;;;5068893;28;20044;-74
2022/06/06 12:41:16;;;;;;;5.10;1.40;;;17.50;99.90;;;;;;5066636;28;20044;-73
2022/06/06 12:43:55;;;;;;;3.90;1.33;;;17.60;99.90;;;;;;5069683;28;20040;-73
2022/06/06 12:46:32;;;;;;;2.00;0.95;;;17.70;99.90;;;;;;5069198;28;20040;-73
2022/06/06 12:49:33;;;;;;;6.78;1.55;;;17.80;99.90;;;;;;5103957;28;20064;-73
2022/06/06 12:52:40;;;;;;;2.80;1.13;;;17.70;99.90;;;;;;5060079;28;20056;-73
2022/06/06 12:55:33;;;;;;;2.83;1.08;;;17.70;99.90;;;;;;5070580;28;20041;-73
2022/06/06 12:58:04;;;;;;;3.38;0.95;;;17.70;99.90;;;;;;5070231;28;20051;-73
2022/06/06 13:03:32;;;;;;;2.58;0.70;;;17.70;99.90;;;;;;5074882;28;20040;-73
2022/06/06 13:06:20;;;;;;;3.03;0.82;;;17.70;99.90;;;;;;5073803;28;20044;-73
2022/06/06 13:09:11;;;;;;;4.03;0.95;;;17.60;99.90;;;;;;5075062;28;20490;-73
2022/06/06 13:11:50;;;;;;;3.22;1.20;;;17.40;99.90;;;;;;5073445;28;20119;-73
2022/06/06 13:14:56;;;;;;;2.63;1.10;;;17.40;99.90;;;;;;5075167;28;20036;-73
2022/06/06 13:17:25;;;;;;;4.22;1.30;;;17.30;99.90;;;;;;5090624;28;20055;-73
2022/06/06 13:19:56;;;;;;;3.53;1.77;;;17.10;99.90;;;;;;5107546;28;20041;-73
2022/06/06 13:22:48;;;;;;;3.75;2.03;;;16.90;99.90;;;;;;5074711;28;20498;-73
2022/06/06 13:25:40;;;;;;;5.97;2.60;;;16.60;99.90;;;;;;5073564;28;20554;-74
2022/06/06 13:28:18;;;;;;;5.43;1.77;;;16.60;99.90;;;;;;5074946;28;20051;-73
2022/06/06 13:31:07;;;;;;;4.57;2.15;;;16.50;99.90;;;;;;5073339;28;20076;-73
2022/06/06 13:34:14;;;;;;;3.05;2.15;;;16.60;99.90;;;;;;5074510;28;20052;-73
2022/06/06 13:37:05;;;;;;;3.97;2.40;;;16.60;99.90;;;;;;5073121;28;20076;-73
2022/06/06 13:39:34;;;;;;;5.25;2.63;;;16.50;99.90;;;;;;5074668;28;20045;-73
2022/06/06 13:42:34;;;;;;;3.72;2.20;;;16.50;99.90;;;;;;5074253;28;20045;-73
2022/06/06 13:45:13;;;;;;;7.95;2.30;;;16.40;99.90;;;;;;5106992;28;20072;-73
2022/06/06 13:47:59;;;;;;;5.03;2.47;;;16.30;99.90;;;;;;5073374;28;20074;-73
2022/06/06 13:51:02;;;;;;;4.78;2.40;;;16.20;99.90;;;;;;5073057;28;20102;-73
2022/06/06 13:53:50;;;;;;;2.85;2.42;;;16.10;99.90;;;;;;5072993;28;20117;-74
2022/06/06 13:56:18;;;;;;;4.35;3.13;;;16.10;99.90;;;;;;5072986;28;20410;-73
2022/06/06 13:59:00;;;;;;;2.38;2.10;;;16.00;99.90;;;;;;5072961;28;20086;-73
2022/06/06 14:01:53;;;;;;;4.15;2.00;;;16.00;99.90;;;;;;5073578;28;20033;-74
2022/06/06 14:05:02;;;;;;;4.50;2.20;;;15.90;99.90;;;;;;5073607;28;20037;-74
2022/06/06 14:07:33;;;;;;;4.35;2.63;;;15.70;99.90;;;;;;5070176;28;20041;-74
2022/06/06 14:10:09;;;;;;;4.32;2.58;;;15.50;99.90;;;;;;5072275;28;20036;-74
2022/06/06 14:12:40;;;;;;;5.20;3.13;;;15.40;99.90;;;;;;5070601;28;20046;-74
2022/06/06 14:15:09;;;;;;;5.00;3.35;;;15.40;99.90;;;;;;5069755;28;20060;-74